Terminal Aerodrome Forecast
Issued by NWS

Home | Current Version | Previous Version | Text Only | Print | Product List | Glossary On
Versions: 1 2 3 4 5 6 7 8 9 10 11 12 13 14
315
FTUS46 KSEW 042100 AAA
TAFCLM
TAF AMD
KCLM 042100Z 0421/0518 27016G22KT P6SM SCT050
     FM050200 27008KT P6SM BKN050
     FM051000 24005KT P6SM -SHRA SCT025 OVC050
     FM051300 VRB03KT 5SM -SHRASN SCT015 OVC025=

USA.gov is the U.S. government's official web portal to all federal, state and local government web resources and services.